Terminal Aerodrome Forecast
Issued by NWS Kansas City/Pleasant Hill, MO

Home | Current Version | Previous Version | Text Only | Print | Product List | Glossary On
Versions: 1 2 3 4 5 6 7 8 9 10 11 12 13 14 15 16 17 18
000
FTUS43 KEAX 210410 AAA
TAFMCI
TAF AMD
KMCI 210410Z 2104/2124 13006KT P6SM BKN100
      TEMPO 2104/2106 5SM BR BKN040
     FM210600 13006KT P6SM BKN010
     FM210700 15006KT 4SM -DZ BR OVC008
     FM211800 18009KT P6SM OVC015=

USA.gov is the U.S. government's official web portal to all federal, state and local government web resources and services.